sensor_id;sensor_type;location;lat;lon;timestamp;temperature;humidity
40534;DHT22;26233;51.894;10.192;2023-07-29T00:00:04;22.30;51.50
40534;DHT22;26233;51.894;10.192;2023-07-29T00:02:32;22.30;51.60
40534;DHT22;26233;51.894;10.192;2023-07-29T00:04:59;22.20;51.60
40534;DHT22;26233;51.894;10.192;2023-07-29T00:07:26;22.20;51.70
40534;DHT22;26233;51.894;10.192;2023-07-29T00:09:53;22.20;51.80
40534;DHT22;26233;51.894;10.192;2023-07-29T00:12:22;22.20;51.90
40534;DHT22;26233;51.894;10.192;2023-07-29T00:14:49;22.20;52.00
40534;DHT22;26233;51.894;10.192;2023-07-29T00:17:16;22.30;52.20
40534;DHT22;26233;51.894;10.192;2023-07-29T00:19:43;22.20;52.10
40534;DHT22;26233;51.894;10.192;2023-07-29T00:22:11;22.20;52.20
40534;DHT22;26233;51.894;10.192;2023-07-29T00:24:39;22.20;52.20
40534;DHT22;26233;51.894;10.192;2023-07-29T00:27:06;22.20;52.30
40534;DHT22;26233;51.894;10.192;2023-07-29T00:29:35;22.20;52.90
40534;DHT22;26233;51.894;10.192;2023-07-29T00:32:03;22.20;52.40
40534;DHT22;26233;51.894;10.192;2023-07-29T00:34:31;22.20;52.40
40534;DHT22;26233;51.894;10.192;2023-07-29T00:36:58;22.10;52.30
40534;DHT22;26233;51.894;10.192;2023-07-29T00:39:25;22.10;52.40
40534;DHT22;26233;51.894;10.192;2023-07-29T00:41:52;22.10;52.50
40534;DHT22;26233;51.894;10.192;2023-07-29T00:44:19;22.10;52.50
40534;DHT22;26233;51.894;10.192;2023-07-29T00:46:49;22.10;52.60
40534;DHT22;26233;51.894;10.192;2023-07-29T00:49:17;22.10;52.70
40534;DHT22;26233;51.894;10.192;2023-07-29T00:51:44;22.10;52.70
40534;DHT22;26233;51.894;10.192;2023-07-29T00:54:11;22.10;52.70
40534;DHT22;26233;51.894;10.192;2023-07-29T00:56:38;22.00;52.70
40534;DHT22;26233;51.894;10.192;2023-07-29T00:59:06;22.00;52.70
40534;DHT22;26233;51.894;10.192;2023-07-29T01:01:33;22.00;52.80
40534;DHT22;26233;51.894;10.192;2023-07-29T01:04:02;22.00;52.80
40534;DHT22;26233;51.894;10.192;2023-07-29T01:06:37;22.00;52.80
40534;DHT22;26233;51.894;10.192;2023-07-29T01:09:12;21.90;52.90
40534;DHT22;26233;51.894;10.192;2023-07-29T01:11:49;21.90;52.90
40534;DHT22;26233;51.894;10.192;2023-07-29T01:14:27;21.90;53.00
40534;DHT22;26233;51.894;10.192;2023-07-29T01:17:03;21.90;53.00
40534;DHT22;26233;51.894;10.192;2023-07-29T01:19:43;21.90;53.00
40534;DHT22;26233;51.894;10.192;2023-07-29T01:22:16;21.80;53.10
40534;DHT22;26233;51.894;10.192;2023-07-29T01:24:45;21.80;52.90
40534;DHT22;26233;51.894;10.192;2023-07-29T01:27:12;21.80;53.00
40534;DHT22;26233;51.894;10.192;2023-07-29T01:29:39;21.80;53.70
40534;DHT22;26233;51.894;10.192;2023-07-29T01:32:13;21.90;53.20
40534;DHT22;26233;51.894;10.192;2023-07-29T01:34:51;21.80;53.20
40534;DHT22;26233;51.894;10.192;2023-07-29T01:37:26;21.80;53.20
40534;DHT22;26233;51.894;10.192;2023-07-29T01:40:00;21.70;53.10
40534;DHT22;26233;51.894;10.192;2023-07-29T01:42:27;21.80;53.30
40534;DHT22;26233;51.894;10.192;2023-07-29T01:44:55;21.70;53.30
40534;DHT22;26233;51.894;10.192;2023-07-29T01:47:22;21.70;53.30
40534;DHT22;26233;51.894;10.192;2023-07-29T01:49:49;21.70;53.40
40534;DHT22;26233;51.894;10.192;2023-07-29T01:52:16;21.70;53.40
40534;DHT22;26233;51.894;10.192;2023-07-29T01:54:43;21.70;53.50
40534;DHT22;26233;51.894;10.192;2023-07-29T01:57:12;21.70;53.50
40534;DHT22;26233;51.894;10.192;2023-07-29T01:59:39;21.60;53.40
40534;DHT22;26233;51.894;10.192;2023-07-29T02:02:06;21.60;53.40
40534;DHT22;26233;51.894;10.192;2023-07-29T02:04:33;21.60;53.40
40534;DHT22;26233;51.894;10.192;2023-07-29T02:07:02;21.60;53.50
40534;DHT22;26233;51.894;10.192;2023-07-29T02:09:30;21.60;53.50
40534;DHT22;26233;51.894;10.192;2023-07-29T02:11:57;21.60;53.60
40534;DHT22;26233;51.894;10.192;2023-07-29T02:14:25;21.60;53.60
40534;DHT22;26233;51.894;10.192;2023-07-29T02:16:52;21.60;53.70
40534;DHT22;26233;51.894;10.192;2023-07-29T02:19:19;21.60;53.70
40534;DHT22;26233;51.894;10.192;2023-07-29T02:21:46;21.50;53.70
40534;DHT22;26233;51.894;10.192;2023-07-29T02:24:14;21.50;53.70
40534;DHT22;26233;51.894;10.192;2023-07-29T02:26:41;21.60;53.90
40534;DHT22;26233;51.894;10.192;2023-07-29T02:29:08;21.60;54.00
40534;DHT22;26233;51.894;10.192;2023-07-29T02:31:37;21.50;53.90
40534;DHT22;26233;51.894;10.192;2023-07-29T02:34:04;21.60;54.10
40534;DHT22;26233;51.894;10.192;2023-07-29T02:36:31;21.50;54.10
40534;DHT22;26233;51.894;10.192;2023-07-29T02:38:58;21.60;54.20
40534;DHT22;26233;51.894;10.192;2023-07-29T02:41:25;21.60;54.20
40534;DHT22;26233;51.894;10.192;2023-07-29T02:43:52;21.60;54.30
40534;DHT22;26233;51.894;10.192;2023-07-29T02:46:19;21.60;55.00
40534;DHT22;26233;51.894;10.192;2023-07-29T02:48:47;21.60;54.40
40534;DHT22;26233;51.894;10.192;2023-07-29T02:51:15;21.60;54.50
40534;DHT22;26233;51.894;10.192;2023-07-29T02:53:44;21.60;54.40
40534;DHT22;26233;51.894;10.192;2023-07-29T02:56:11;21.60;54.50
40534;DHT22;26233;51.894;10.192;2023-07-29T02:58:39;21.60;54.50
40534;DHT22;26233;51.894;10.192;2023-07-29T03:01:06;21.50;54.50
40534;DHT22;26233;51.894;10.192;2023-07-29T03:03:33;21.60;54.60
40534;DHT22;26233;51.894;10.192;2023-07-29T03:06:03;21.60;54.50
40534;DHT22;26233;51.894;10.192;2023-07-29T03:08:31;21.60;54.70
40534;DHT22;26233;51.894;10.192;2023-07-29T03:10:58;21.60;54.70
40534;DHT22;26233;51.894;10.192;2023-07-29T03:13:26;21.70;54.80
40534;DHT22;26233;51.894;10.192;2023-07-29T03:15:53;21.70;54.80
40534;DHT22;26233;51.894;10.192;2023-07-29T03:18:20;21.70;54.90
40534;DHT22;26233;51.894;10.192;2023-07-29T03:20:49;21.70;54.90
40534;DHT22;26233;51.894;10.192;2023-07-29T03:23:17;21.70;54.90
40534;DHT22;26233;51.894;10.192;2023-07-29T03:25:47;21.70;55.60
40534;DHT22;26233;51.894;10.192;2023-07-29T03:28:15;21.70;54.80
40534;DHT22;26233;51.894;10.192;2023-07-29T03:30:42;21.70;54.80
40534;DHT22;26233;51.894;10.192;2023-07-29T03:33:09;21.60;54.70
40534;DHT22;26233;51.894;10.192;2023-07-29T03:35:36;21.60;54.90
40534;DHT22;26233;51.894;10.192;2023-07-29T03:38:03;21.60;54.80
40534;DHT22;26233;51.894;10.192;2023-07-29T03:40:32;21.60;54.90
40534;DHT22;26233;51.894;10.192;2023-07-29T03:42:59;21.60;55.00
40534;DHT22;26233;51.894;10.192;2023-07-29T03:45:26;21.60;55.00
40534;DHT22;26233;51.894;10.192;2023-07-29T03:47:53;21.60;55.10
40534;DHT22;26233;51.894;10.192;2023-07-29T03:50:21;21.60;55.10
40534;DHT22;26233;51.894;10.192;2023-07-29T03:52:48;21.60;55.10
40534;DHT22;26233;51.894;10.192;2023-07-29T03:55:15;21.60;55.20
40534;DHT22;26233;51.894;10.192;2023-07-29T03:57:43;21.60;55.20
40534;DHT22;26233;51.894;10.192;2023-07-29T04:00:11;21.60;55.20
40534;DHT22;26233;51.894;10.192;2023-07-29T04:02:38;21.60;55.20
40534;DHT22;26233;51.894;10.192;2023-07-29T04:05:06;21.60;55.20
40534;DHT22;26233;51.894;10.192;2023-07-29T04:07:35;21.70;55.40
40534;DHT22;26233;51.894;10.192;2023-07-29T04:10:02;21.70;55.40
40534;DHT22;26233;51.894;10.192;2023-07-29T04:12:30;21.70;55.40
40534;DHT22;26233;51.894;10.192;2023-07-29T04:14:59;21.70;55.30
40534;DHT22;26233;51.894;10.192;2023-07-29T04:17:26;21.70;55.30
40534;DHT22;26233;51.894;10.192;2023-07-29T04:19:53;21.70;55.30
40534;DHT22;26233;51.894;10.192;2023-07-29T04:22:20;21.70;55.30
40534;DHT22;26233;51.894;10.192;2023-07-29T04:24:47;21.80;55.50
40534;DHT22;26233;51.894;10.192;2023-07-29T04:27:14;21.80;55.50
40534;DHT22;26233;51.894;10.192;2023-07-29T04:29:43;21.80;55.50
40534;DHT22;26233;51.894;10.192;2023-07-29T04:32:12;21.80;55.50
40534;DHT22;26233;51.894;10.192;2023-07-29T04:34:39;21.90;55.60
40534;DHT22;26233;51.894;10.192;2023-07-29T04:37:06;21.90;55.60
40534;DHT22;26233;51.894;10.192;2023-07-29T04:39:33;21.90;55.60
40534;DHT22;26233;51.894;10.192;2023-07-29T04:42:00;22.00;55.70
40534;DHT22;26233;51.894;10.192;2023-07-29T04:44:27;22.00;55.70
40534;DHT22;26233;51.894;10.192;2023-07-29T04:46:54;22.00;55.50
40534;DHT22;26233;51.894;10.192;2023-07-29T04:49:23;22.00;55.50
40534;DHT22;26233;51.894;10.192;2023-07-29T04:51:50;22.00;55.50
40534;DHT22;26233;51.894;10.192;2023-07-29T04:54:17;22.10;55.70
40534;DHT22;26233;51.894;10.192;2023-07-29T04:56:46;22.10;55.70
40534;DHT22;26233;51.894;10.192;2023-07-29T04:59:13;22.10;55.70
40534;DHT22;26233;51.894;10.192;2023-07-29T05:01:40;22.10;55.70
40534;DHT22;26233;51.894;10.192;2023-07-29T05:04:08;22.20;55.80
40534;DHT22;26233;51.894;10.192;2023-07-29T05:06:37;22.20;55.70
40534;DHT22;26233;51.894;10.192;2023-07-29T05:09:13;22.20;55.60
40534;DHT22;26233;51.894;10.192;2023-07-29T05:11:41;22.20;55.70
40534;DHT22;26233;51.894;10.192;2023-07-29T05:14:09;22.20;55.50
40534;DHT22;26233;51.894;10.192;2023-07-29T05:16:36;22.20;55.50
40534;DHT22;26233;51.894;10.192;2023-07-29T05:19:03;22.10;55.40
40534;DHT22;26233;51.894;10.192;2023-07-29T05:21:30;22.10;56.10
40534;DHT22;26233;51.894;10.192;2023-07-29T05:23:58;22.10;55.50
40534;DHT22;26233;51.894;10.192;2023-07-29T05:26:25;22.00;55.50
40534;DHT22;26233;51.894;10.192;2023-07-29T05:28:52;22.00;55.50
40534;DHT22;26233;51.894;10.192;2023-07-29T05:31:19;22.00;55.50
40534;DHT22;26233;51.894;10.192;2023-07-29T05:33:46;22.00;55.60
40534;DHT22;26233;51.894;10.192;2023-07-29T05:36:14;21.90;55.70
40534;DHT22;26233;51.894;10.192;2023-07-29T05:38:41;21.90;55.80
40534;DHT22;26233;51.894;10.192;2023-07-29T05:41:09;21.80;55.80
40534;DHT22;26233;51.894;10.192;2023-07-29T05:43:36;21.80;56.00
40534;DHT22;26233;51.894;10.192;2023-07-29T05:46:04;21.80;56.10
40534;DHT22;26233;51.894;10.192;2023-07-29T05:48:31;21.80;56.10
40534;DHT22;26233;51.894;10.192;2023-07-29T05:50:58;21.80;56.20
40534;DHT22;26233;51.894;10.192;2023-07-29T05:53:25;21.70;56.20
40534;DHT22;26233;51.894;10.192;2023-07-29T05:55:52;21.70;56.20
40534;DHT22;26233;51.894;10.192;2023-07-29T05:58:20;21.70;56.20
40534;DHT22;26233;51.894;10.192;2023-07-29T06:00:47;21.70;56.30
40534;DHT22;26233;51.894;10.192;2023-07-29T06:03:15;21.70;56.30
40534;DHT22;26233;51.894;10.192;2023-07-29T06:05:42;21.70;56.40
40534;DHT22;26233;51.894;10.192;2023-07-29T06:08:09;21.70;57.00
40534;DHT22;26233;51.894;10.192;2023-07-29T06:10:36;21.60;56.40
40534;DHT22;26233;51.894;10.192;2023-07-29T06:13:03;21.70;56.60
40534;DHT22;26233;51.894;10.192;2023-07-29T06:15:31;21.60;56.50
40534;DHT22;26233;51.894;10.192;2023-07-29T06:17:58;21.60;56.50
40534;DHT22;26233;51.894;10.192;2023-07-29T06:20:25;21.60;57.00
40534;DHT22;26233;51.894;10.192;2023-07-29T06:22:52;21.50;56.30
40534;DHT22;26233;51.894;10.192;2023-07-29T06:25:19;21.50;56.50
40534;DHT22;26233;51.894;10.192;2023-07-29T06:27:48;21.50;56.70
40534;DHT22;26233;51.894;10.192;2023-07-29T06:30:14;21.50;56.90
40534;DHT22;26233;51.894;10.192;2023-07-29T06:32:43;21.50;57.10
40534;DHT22;26233;51.894;10.192;2023-07-29T06:35:10;21.50;57.20
40534;DHT22;26233;51.894;10.192;2023-07-29T06:37:37;21.50;57.20
40534;DHT22;26233;51.894;10.192;2023-07-29T06:40:05;21.50;57.10
40534;DHT22;26233;51.894;10.192;2023-07-29T06:42:33;21.60;57.20
40534;DHT22;26233;51.894;10.192;2023-07-29T06:45:00;21.60;57.30
40534;DHT22;26233;51.894;10.192;2023-07-29T06:47:27;21.60;57.20
40534;DHT22;26233;51.894;10.192;2023-07-29T06:49:55;21.60;57.20
40534;DHT22;26233;51.894;10.192;2023-07-29T06:52:22;21.60;57.10
40534;DHT22;26233;51.894;10.192;2023-07-29T06:54:49;21.60;57.10
40534;DHT22;26233;51.894;10.192;2023-07-29T06:57:17;21.60;57.80
40534;DHT22;26233;51.894;10.192;2023-07-29T06:59:44;21.60;57.20
40534;DHT22;26233;51.894;10.192;2023-07-29T07:02:11;21.60;57.30
40534;DHT22;26233;51.894;10.192;2023-07-29T07:04:38;21.60;57.50
40534;DHT22;26233;51.894;10.192;2023-07-29T07:07:06;21.60;57.60
40534;DHT22;26233;51.894;10.192;2023-07-29T07:09:33;21.70;57.80
40534;DHT22;26233;51.894;10.192;2023-07-29T07:12:00;21.70;57.90
40534;DHT22;26233;51.894;10.192;2023-07-29T07:14:27;21.70;58.00
40534;DHT22;26233;51.894;10.192;2023-07-29T07:16:54;21.80;58.10
40534;DHT22;26233;51.894;10.192;2023-07-29T07:19:22;21.80;58.10
40534;DHT22;26233;51.894;10.192;2023-07-29T07:21:49;21.90;58.30
40534;DHT22;26233;51.894;10.192;2023-07-29T07:24:17;22.00;58.30
40534;DHT22;26233;51.894;10.192;2023-07-29T07:26:44;22.10;58.30
40534;DHT22;26233;51.894;10.192;2023-07-29T07:29:11;22.10;58.10
40534;DHT22;26233;51.894;10.192;2023-07-29T07:31:38;22.20;58.00
40534;DHT22;26233;51.894;10.192;2023-07-29T07:34:05;22.20;57.90
40534;DHT22;26233;51.894;10.192;2023-07-29T07:36:32;22.20;57.90
40534;DHT22;26233;51.894;10.192;2023-07-29T07:38:59;22.20;57.90
40534;DHT22;26233;51.894;10.192;2023-07-29T07:41:28;22.30;58.00
40534;DHT22;26233;51.894;10.192;2023-07-29T07:43:57;22.30;58.10
40534;DHT22;26233;51.894;10.192;2023-07-29T07:46:24;22.40;58.20
40534;DHT22;26233;51.894;10.192;2023-07-29T07:48:51;22.40;58.40
40534;DHT22;26233;51.894;10.192;2023-07-29T07:51:18;22.50;58.50
40534;DHT22;26233;51.894;10.192;2023-07-29T07:53:45;22.60;58.80
40534;DHT22;26233;51.894;10.192;2023-07-29T07:56:12;22.70;59.00
40534;DHT22;26233;51.894;10.192;2023-07-29T07:58:40;22.80;59.10
40534;DHT22;26233;51.894;10.192;2023-07-29T08:01:08;22.90;59.00
40534;DHT22;26233;51.894;10.192;2023-07-29T08:03:36;23.00;58.80
40534;DHT22;26233;51.894;10.192;2023-07-29T08:06:04;23.00;58.50
40534;DHT22;26233;51.894;10.192;2023-07-29T08:08:32;23.00;58.20
40534;DHT22;26233;51.894;10.192;2023-07-29T08:10:59;23.00;57.90
40534;DHT22;26233;51.894;10.192;2023-07-29T08:13:26;23.00;57.90
40534;DHT22;26233;51.894;10.192;2023-07-29T08:15:55;22.90;57.90
40534;DHT22;26233;51.894;10.192;2023-07-29T08:18:22;22.90;58.10
40534;DHT22;26233;51.894;10.192;2023-07-29T08:20:52;22.90;58.20
40534;DHT22;26233;51.894;10.192;2023-07-29T08:23:21;22.90;58.20
40534;DHT22;26233;51.894;10.192;2023-07-29T08:25:52;22.90;58.20
40534;DHT22;26233;51.894;10.192;2023-07-29T08:28:21;22.90;58.30
40534;DHT22;26233;51.894;10.192;2023-07-29T08:30:48;22.90;58.20
40534;DHT22;26233;51.894;10.192;2023-07-29T08:33:17;23.00;58.00
40534;DHT22;26233;51.894;10.192;2023-07-29T08:35:44;22.90;57.80
40534;DHT22;26233;51.894;10.192;2023-07-29T08:38:11;22.90;57.80
40534;DHT22;26233;51.894;10.192;2023-07-29T08:40:44;22.90;58.00
40534;DHT22;26233;51.894;10.192;2023-07-29T08:43:17;22.80;58.00
40534;DHT22;26233;51.894;10.192;2023-07-29T08:45:46;22.80;58.00
40534;DHT22;26233;51.894;10.192;2023-07-29T08:48:18;22.80;58.00
40534;DHT22;26233;51.894;10.192;2023-07-29T08:50:47;22.70;58.00
40534;DHT22;26233;51.894;10.192;2023-07-29T08:53:14;22.60;57.90
40534;DHT22;26233;51.894;10.192;2023-07-29T08:55:41;22.60;58.10
40534;DHT22;26233;51.894;10.192;2023-07-29T08:58:09;22.50;58.20
40534;DHT22;26233;51.894;10.192;2023-07-29T09:00:37;22.50;58.40
40534;DHT22;26233;51.894;10.192;2023-07-29T09:03:06;22.50;58.40
40534;DHT22;26233;51.894;10.192;2023-07-29T09:05:34;22.40;58.40
40534;DHT22;26233;51.894;10.192;2023-07-29T09:08:02;22.40;58.40
40534;DHT22;26233;51.894;10.192;2023-07-29T09:10:35;22.40;58.50
40534;DHT22;26233;51.894;10.192;2023-07-29T09:13:03;22.40;58.60
40534;DHT22;26233;51.894;10.192;2023-07-29T09:15:31;22.40;59.20
40534;DHT22;26233;51.894;10.192;2023-07-29T09:18:00;22.40;58.70
40534;DHT22;26233;51.894;10.192;2023-07-29T09:20:37;22.40;58.70
40534;DHT22;26233;51.894;10.192;2023-07-29T09:23:07;22.30;58.60
40534;DHT22;26233;51.894;10.192;2023-07-29T09:25:36;22.30;58.70
40534;DHT22;26233;51.894;10.192;2023-07-29T09:28:08;22.30;59.00
40534;DHT22;26233;51.894;10.192;2023-07-29T09:30:38;22.30;59.30
40534;DHT22;26233;51.894;10.192;2023-07-29T09:33:05;22.40;59.50
40534;DHT22;26233;51.894;10.192;2023-07-29T09:35:34;22.50;59.90
40534;DHT22;26233;51.894;10.192;2023-07-29T09:38:05;22.60;60.40
40534;DHT22;26233;51.894;10.192;2023-07-29T09:40:36;22.80;60.70
40534;DHT22;26233;51.894;10.192;2023-07-29T09:43:04;22.90;60.70
40534;DHT22;26233;51.894;10.192;2023-07-29T09:45:34;23.10;60.50
40534;DHT22;26233;51.894;10.192;2023-07-29T09:48:03;23.20;60.20
40534;DHT22;26233;51.894;10.192;2023-07-29T09:50:35;23.30;60.00
40534;DHT22;26233;51.894;10.192;2023-07-29T09:53:04;23.40;59.80
40534;DHT22;26233;51.894;10.192;2023-07-29T09:55:33;23.50;60.00
40534;DHT22;26233;51.894;10.192;2023-07-29T09:58:01;23.60;60.60
40534;DHT22;26233;51.894;10.192;2023-07-29T10:00:30;23.70;59.80
40534;DHT22;26233;51.894;10.192;2023-07-29T10:02:58;23.80;59.50
40534;DHT22;26233;51.894;10.192;2023-07-29T10:05:26;23.80;59.10
40534;DHT22;26233;51.894;10.192;2023-07-29T10:07:54;23.90;58.90
40534;DHT22;26233;51.894;10.192;2023-07-29T10:10:23;23.80;58.70
40534;DHT22;26233;51.894;10.192;2023-07-29T10:12:51;23.80;58.70
40534;DHT22;26233;51.894;10.192;2023-07-29T10:15:18;23.90;59.50
40534;DHT22;26233;51.894;10.192;2023-07-29T10:17:47;24.00;59.60
40534;DHT22;26233;51.894;10.192;2023-07-29T10:20:15;24.20;59.90
40534;DHT22;26233;51.894;10.192;2023-07-29T10:22:43;24.40;60.50
40534;DHT22;26233;51.894;10.192;2023-07-29T10:25:15;24.70;61.00
40534;DHT22;26233;51.894;10.192;2023-07-29T10:27:48;25.00;61.30
40534;DHT22;26233;51.894;10.192;2023-07-29T10:30:16;25.40;61.30
40534;DHT22;26233;51.894;10.192;2023-07-29T10:32:45;25.70;60.70
40534;DHT22;26233;51.894;10.192;2023-07-29T10:35:13;26.10;60.50
40534;DHT22;26233;51.894;10.192;2023-07-29T10:37:40;26.40;60.80
40534;DHT22;26233;51.894;10.192;2023-07-29T10:40:10;26.80;60.00
40534;DHT22;26233;51.894;10.192;2023-07-29T10:42:38;27.00;59.00
40534;DHT22;26233;51.894;10.192;2023-07-29T10:45:20;27.30;59.30
40534;DHT22;26233;51.894;10.192;2023-07-29T10:47:48;27.50;57.30
40534;DHT22;26233;51.894;10.192;2023-07-29T10:50:19;27.60;56.90
40534;DHT22;26233;51.894;10.192;2023-07-29T10:52:51;27.50;55.20
40534;DHT22;26233;51.894;10.192;2023-07-29T10:55:27;27.30;54.10
40534;DHT22;26233;51.894;10.192;2023-07-29T10:58:06;27.10;53.60
40534;DHT22;26233;51.894;10.192;2023-07-29T11:00:35;26.70;53.00
40534;DHT22;26233;51.894;10.192;2023-07-29T11:03:04;26.30;52.90
40534;DHT22;26233;51.894;10.192;2023-07-29T11:05:47;25.90;53.60
40534;DHT22;26233;51.894;10.192;2023-07-29T11:08:20;25.50;53.20
40534;DHT22;26233;51.894;10.192;2023-07-29T11:11:04;25.10;53.70
40534;DHT22;26233;51.894;10.192;2023-07-29T11:13:33;24.90;54.00
40534;DHT22;26233;51.894;10.192;2023-07-29T11:16:03;24.70;54.50
40534;DHT22;26233;51.894;10.192;2023-07-29T11:18:32;24.50;54.80
40534;DHT22;26233;51.894;10.192;2023-07-29T11:21:01;24.50;56.10
40534;DHT22;26233;51.894;10.192;2023-07-29T11:23:30;24.60;57.90
40534;DHT22;26233;51.894;10.192;2023-07-29T11:25:59;24.90;59.00
40534;DHT22;26233;51.894;10.192;2023-07-29T11:28:27;25.30;60.20
40534;DHT22;26233;51.894;10.192;2023-07-29T11:30:55;25.70;60.10
40534;DHT22;26233;51.894;10.192;2023-07-29T11:33:25;26.10;59.70
40534;DHT22;26233;51.894;10.192;2023-07-29T11:35:53;26.40;59.40
40534;DHT22;26233;51.894;10.192;2023-07-29T11:38:22;26.90;60.30
40534;DHT22;26233;51.894;10.192;2023-07-29T11:40:58;27.30;60.50
40534;DHT22;26233;51.894;10.192;2023-07-29T11:43:25;27.80;59.20
40534;DHT22;26233;51.894;10.192;2023-07-29T11:45:53;28.20;59.00
40534;DHT22;26233;51.894;10.192;2023-07-29T11:48:31;28.50;57.40
40534;DHT22;26233;51.894;10.192;2023-07-29T11:50:59;28.70;55.20
40534;DHT22;26233;51.894;10.192;2023-07-29T11:53:28;28.80;55.20
40534;DHT22;26233;51.894;10.192;2023-07-29T11:55:55;28.80;54.70
40534;DHT22;26233;51.894;10.192;2023-07-29T11:58:23;28.80;54.70
40534;DHT22;26233;51.894;10.192;2023-07-29T12:00:51;28.80;54.30
40534;DHT22;26233;51.894;10.192;2023-07-29T12:03:19;28.70;53.40
40534;DHT22;26233;51.894;10.192;2023-07-29T12:05:47;28.70;52.40
40534;DHT22;26233;51.894;10.192;2023-07-29T12:08:15;28.50;51.80
40534;DHT22;26233;51.894;10.192;2023-07-29T12:10:42;28.20;51.60
40534;DHT22;26233;51.894;10.192;2023-07-29T12:13:09;28.00;51.40
40534;DHT22;26233;51.894;10.192;2023-07-29T12:15:38;27.80;51.50
40534;DHT22;26233;51.894;10.192;2023-07-29T12:18:06;27.70;51.80
40534;DHT22;26233;51.894;10.192;2023-07-29T12:20:34;27.60;52.20
40534;DHT22;26233;51.894;10.192;2023-07-29T12:23:02;27.60;52.60
40534;DHT22;26233;51.894;10.192;2023-07-29T12:25:31;27.70;53.00
40534;DHT22;26233;51.894;10.192;2023-07-29T12:28:02;27.80;53.30
40534;DHT22;26233;51.894;10.192;2023-07-29T12:30:30;28.00;52.40
40534;DHT22;26233;51.894;10.192;2023-07-29T12:32:57;28.10;51.90
40534;DHT22;26233;51.894;10.192;2023-07-29T12:35:33;28.10;51.30
40534;DHT22;26233;51.894;10.192;2023-07-29T12:38:02;28.20;51.30
40534;DHT22;26233;51.894;10.192;2023-07-29T12:40:30;28.20;50.50
40534;DHT22;26233;51.894;10.192;2023-07-29T12:42:57;28.30;50.50
40534;DHT22;26233;51.894;10.192;2023-07-29T12:45:24;28.30;50.40
40534;DHT22;26233;51.894;10.192;2023-07-29T12:47:52;28.50;50.20
40534;DHT22;26233;51.894;10.192;2023-07-29T12:50:19;28.60;50.40
40534;DHT22;26233;51.894;10.192;2023-07-29T12:52:46;28.70;49.80
40534;DHT22;26233;51.894;10.192;2023-07-29T12:55:15;28.80;49.40
40534;DHT22;26233;51.894;10.192;2023-07-29T12:57:42;28.90;49.50
40534;DHT22;26233;51.894;10.192;2023-07-29T13:00:10;29.00;49.10
40534;DHT22;26233;51.894;10.192;2023-07-29T13:02:38;29.00;48.90
40534;DHT22;26233;51.894;10.192;2023-07-29T13:05:06;29.00;48.00
40534;DHT22;26233;51.894;10.192;2023-07-29T13:07:35;29.00;46.70
40534;DHT22;26233;51.894;10.192;2023-07-29T13:10:03;28.90;46.70
40534;DHT22;26233;51.894;10.192;2023-07-29T13:12:32;28.80;47.00
40534;DHT22;26233;51.894;10.192;2023-07-29T13:14:59;28.80;47.00
40534;DHT22;26233;51.894;10.192;2023-07-29T13:17:26;28.80;46.90
40534;DHT22;26233;51.894;10.192;2023-07-29T13:19:53;28.80;46.90
40534;DHT22;26233;51.894;10.192;2023-07-29T13:22:21;28.80;46.90
40534;DHT22;26233;51.894;10.192;2023-07-29T13:24:48;28.70;46.40
40534;DHT22;26233;51.894;10.192;2023-07-29T13:27:15;28.70;46.30
40534;DHT22;26233;51.894;10.192;2023-07-29T13:29:43;28.70;46.00
40534;DHT22;26233;51.894;10.192;2023-07-29T13:32:11;28.70;45.90
40534;DHT22;26233;51.894;10.192;2023-07-29T13:34:38;28.70;46.10
40534;DHT22;26233;51.894;10.192;2023-07-29T13:37:06;28.70;46.20
40534;DHT22;26233;51.894;10.192;2023-07-29T13:39:33;28.80;45.80
40534;DHT22;26233;51.894;10.192;2023-07-29T13:42:00;28.80;45.60
40534;DHT22;26233;51.894;10.192;2023-07-29T13:44:27;28.90;45.60
40534;DHT22;26233;51.894;10.192;2023-07-29T13:46:55;28.90;45.20
40534;DHT22;26233;51.894;10.192;2023-07-29T13:49:22;28.90;44.90
40534;DHT22;26233;51.894;10.192;2023-07-29T13:51:49;28.80;44.60
40534;DHT22;26233;51.894;10.192;2023-07-29T13:54:16;28.80;44.70
40534;DHT22;26233;51.894;10.192;2023-07-29T13:56:44;28.80;44.90
40534;DHT22;26233;51.894;10.192;2023-07-29T13:59:11;28.80;44.80
40534;DHT22;26233;51.894;10.192;2023-07-29T14:01:38;28.90;44.70
40534;DHT22;26233;51.894;10.192;2023-07-29T14:04:06;28.90;44.50
40534;DHT22;26233;51.894;10.192;2023-07-29T14:06:33;28.90;44.30
40534;DHT22;26233;51.894;10.192;2023-07-29T14:09:00;28.80;44.20
40534;DHT22;26233;51.894;10.192;2023-07-29T14:11:27;28.80;43.90
40534;DHT22;26233;51.894;10.192;2023-07-29T14:13:54;28.80;44.00
40534;DHT22;26233;51.894;10.192;2023-07-29T14:16:21;28.80;44.90
40534;DHT22;26233;51.894;10.192;2023-07-29T14:18:48;28.80;44.10
40534;DHT22;26233;51.894;10.192;2023-07-29T14:21:17;28.90;44.20
40534;DHT22;26233;51.894;10.192;2023-07-29T14:23:44;28.90;44.10
40534;DHT22;26233;51.894;10.192;2023-07-29T14:26:11;29.00;43.80
40534;DHT22;26233;51.894;10.192;2023-07-29T14:28:38;29.00;43.30
40534;DHT22;26233;51.894;10.192;2023-07-29T14:31:05;29.00;42.40
40534;DHT22;26233;51.894;10.192;2023-07-29T14:33:32;29.00;43.00
40534;DHT22;26233;51.894;10.192;2023-07-29T14:35:59;29.00;42.60
40534;DHT22;26233;51.894;10.192;2023-07-29T14:38:28;29.00;42.60
40534;DHT22;26233;51.894;10.192;2023-07-29T14:40:55;29.00;42.60
40534;DHT22;26233;51.894;10.192;2023-07-29T14:43:22;29.00;43.40
40534;DHT22;26233;51.894;10.192;2023-07-29T14:45:49;28.90;42.60
40534;DHT22;26233;51.894;10.192;2023-07-29T14:48:16;28.90;42.60
40534;DHT22;26233;51.894;10.192;2023-07-29T14:50:43;28.80;42.60
40534;DHT22;26233;51.894;10.192;2023-07-29T14:53:11;28.90;42.70
40534;DHT22;26233;51.894;10.192;2023-07-29T14:55:39;28.80;42.30
40534;DHT22;26233;51.894;10.192;2023-07-29T14:58:06;28.80;42.00
40534;DHT22;26233;51.894;10.192;2023-07-29T15:00:33;28.70;41.90
40534;DHT22;26233;51.894;10.192;2023-07-29T15:03:00;28.60;42.00
40534;DHT22;26233;51.894;10.192;2023-07-29T15:05:27;28.60;41.90
40534;DHT22;26233;51.894;10.192;2023-07-29T15:07:54;28.50;41.80
40534;DHT22;26233;51.894;10.192;2023-07-29T15:10:21;28.40;41.60
40534;DHT22;26233;51.894;10.192;2023-07-29T15:12:50;28.30;41.70
40534;DHT22;26233;51.894;10.192;2023-07-29T15:15:17;28.20;41.70
40534;DHT22;26233;51.894;10.192;2023-07-29T15:17:44;28.10;41.80
40534;DHT22;26233;51.894;10.192;2023-07-29T15:20:11;28.10;42.10